sensor_id;sensor_type;location;lat;lon;timestamp;temperature;humidity
34698;DHT22;61391;50.922;6.928;2022-12-18T00:01:58;-3.70;99.90
34698;DHT22;61391;50.922;6.928;2022-12-18T00:04:26;-3.70;99.90
34698;DHT22;61391;50.922;6.928;2022-12-18T00:06:52;-3.80;99.90
34698;DHT22;61391;50.922;6.928;2022-12-18T00:09:38;-3.70;99.90
34698;DHT22;61391;50.922;6.928;2022-12-18T00:12:04;-3.60;99.90
34698;DHT22;61391;50.922;6.928;2022-12-18T00:14:31;-3.60;99.90
34698;DHT22;61391;50.922;6.928;2022-12-18T00:16:58;-3.60;99.90
34698;DHT22;61391;50.922;6.928;2022-12-18T00:19:26;-3.70;99.90
34698;DHT22;61391;50.922;6.928;2022-12-18T00:21:51;-3.80;99.90
34698;DHT22;61391;50.922;6.928;2022-12-18T00:24:17;-3.80;99.90
34698;DHT22;61391;50.922;6.928;2022-12-18T00:26:44;-3.90;99.90
34698;DHT22;61391;50.922;6.928;2022-12-18T00:29:13;-3.80;99.90
34698;DHT22;61391;50.922;6.928;2022-12-18T00:31:40;-3.80;99.90
34698;DHT22;61391;50.922;6.928;2022-12-18T00:34:06;-3.80;99.90
34698;DHT22;61391;50.922;6.928;2022-12-18T00:36:33;-3.70;99.90
34698;DHT22;61391;50.922;6.928;2022-12-18T00:39:03;-3.70;99.90
34698;DHT22;61391;50.922;6.928;2022-12-18T00:41:29;-3.80;99.90
34698;DHT22;61391;50.922;6.928;2022-12-18T00:44:15;-3.70;99.90
34698;DHT22;61391;50.922;6.928;2022-12-18T00:46:41;-3.70;99.90
34698;DHT22;61391;50.922;6.928;2022-12-18T00:49:07;-3.90;99.90
34698;DHT22;61391;50.922;6.928;2022-12-18T00:51:33;-3.90;99.90
34698;DHT22;61391;50.922;6.928;2022-12-18T00:53:59;-4.00;99.90
34698;DHT22;61391;50.922;6.928;2022-12-18T00:56:24;-3.90;99.90
34698;DHT22;61391;50.922;6.928;2022-12-18T00:58:50;-3.90;99.90
34698;DHT22;61391;50.922;6.928;2022-12-18T01:01:16;-3.80;99.90
34698;DHT22;61391;50.922;6.928;2022-12-18T01:03:41;-3.60;99.90
34698;DHT22;61391;50.922;6.928;2022-12-18T01:06:09;-3.60;99.90
34698;DHT22;61391;50.922;6.928;2022-12-18T01:08:35;-3.60;99.90
34698;DHT22;61391;50.922;6.928;2022-12-18T01:11:07;-3.80;99.90
34698;DHT22;61391;50.922;6.928;2022-12-18T01:13:33;-3.80;99.90
34698;DHT22;61391;50.922;6.928;2022-12-18T01:15:58;-3.80;99.90
34698;DHT22;61391;50.922;6.928;2022-12-18T01:18:24;-3.90;99.90
34698;DHT22;61391;50.922;6.928;2022-12-18T01:20:50;-3.60;99.90
34698;DHT22;61391;50.922;6.928;2022-12-18T01:23:15;-3.70;99.90
34698;DHT22;61391;50.922;6.928;2022-12-18T01:25:41;-3.70;99.90
34698;DHT22;61391;50.922;6.928;2022-12-18T01:28:06;-3.60;99.90
34698;DHT22;61391;50.922;6.928;2022-12-18T01:30:32;-3.60;99.90
34698;DHT22;61391;50.922;6.928;2022-12-18T01:32:57;-3.60;99.90
34698;DHT22;61391;50.922;6.928;2022-12-18T01:35:23;-3.60;99.90
34698;DHT22;61391;50.922;6.928;2022-12-18T01:37:48;-3.60;99.90
34698;DHT22;61391;50.922;6.928;2022-12-18T01:40:14;-3.50;99.90
34698;DHT22;61391;50.922;6.928;2022-12-18T01:42:40;-3.70;99.90
34698;DHT22;61391;50.922;6.928;2022-12-18T01:48:05;-3.90;99.90
34698;DHT22;61391;50.922;6.928;2022-12-18T01:50:40;-3.90;99.90
34698;DHT22;61391;50.922;6.928;2022-12-18T01:53:30;-3.90;99.90
34698;DHT22;61391;50.922;6.928;2022-12-18T01:55:57;-3.90;99.90
34698;DHT22;61391;50.922;6.928;2022-12-18T02:01:10;-3.80;99.90
34698;DHT22;61391;50.922;6.928;2022-12-18T02:03:36;-3.80;99.90
34698;DHT22;61391;50.922;6.928;2022-12-18T02:08:46;-3.80;99.90
34698;DHT22;61391;50.922;6.928;2022-12-18T02:11:34;-3.80;99.90
34698;DHT22;61391;50.922;6.928;2022-12-18T02:14:20;-3.90;99.90
34698;DHT22;61391;50.922;6.928;2022-12-18T02:17:10;-3.80;99.90
34698;DHT22;61391;50.922;6.928;2022-12-18T02:28:16;-3.90;99.90
34698;DHT22;61391;50.922;6.928;2022-12-18T02:30:47;-4.10;99.90
34698;DHT22;61391;50.922;6.928;2022-12-18T02:33:15;-4.10;99.90
34698;DHT22;61391;50.922;6.928;2022-12-18T02:35:41;-4.10;99.90
34698;DHT22;61391;50.922;6.928;2022-12-18T02:38:09;-4.10;99.90
34698;DHT22;61391;50.922;6.928;2022-12-18T02:40:36;-4.00;99.90
34698;DHT22;61391;50.922;6.928;2022-12-18T02:43:14;-4.10;99.90
34698;DHT22;61391;50.922;6.928;2022-12-18T02:45:57;-4.00;99.90
34698;DHT22;61391;50.922;6.928;2022-12-18T02:48:28;-3.90;99.90
34698;DHT22;61391;50.922;6.928;2022-12-18T02:50:58;-3.90;99.90
34698;DHT22;61391;50.922;6.928;2022-12-18T02:53:35;-4.00;99.90
34698;DHT22;61391;50.922;6.928;2022-12-18T03:02:25;-4.00;99.90
34698;DHT22;61391;50.922;6.928;2022-12-18T03:05:15;-4.00;99.90
34698;DHT22;61391;50.922;6.928;2022-12-18T03:08:05;-4.00;99.90
34698;DHT22;61391;50.922;6.928;2022-12-18T03:10:35;-4.00;99.90
34698;DHT22;61391;50.922;6.928;2022-12-18T03:13:31;-4.00;99.90
34698;DHT22;61391;50.922;6.928;2022-12-18T03:15:59;-4.00;99.90
34698;DHT22;61391;50.922;6.928;2022-12-18T03:18:51;-3.90;99.90
34698;DHT22;61391;50.922;6.928;2022-12-18T03:21:25;-3.80;99.90
34698;DHT22;61391;50.922;6.928;2022-12-18T03:23:52;-3.30;99.90
34698;DHT22;61391;50.922;6.928;2022-12-18T03:26:22;-3.70;99.90
34698;DHT22;61391;50.922;6.928;2022-12-18T03:28:53;-3.90;99.90
34698;DHT22;61391;50.922;6.928;2022-12-18T03:31:22;-4.00;99.90
34698;DHT22;61391;50.922;6.928;2022-12-18T03:33:54;-4.10;99.90
34698;DHT22;61391;50.922;6.928;2022-12-18T03:36:21;-4.10;99.90
34698;DHT22;61391;50.922;6.928;2022-12-18T03:38:47;-3.90;99.90
34698;DHT22;61391;50.922;6.928;2022-12-18T03:41:31;-4.00;99.90
34698;DHT22;61391;50.922;6.928;2022-12-18T03:46:58;-3.80;99.90
34698;DHT22;61391;50.922;6.928;2022-12-18T03:49:49;-3.80;99.90
34698;DHT22;61391;50.922;6.928;2022-12-18T03:52:26;-3.90;99.90
34698;DHT22;61391;50.922;6.928;2022-12-18T03:54:54;-4.00;99.90
34698;DHT22;61391;50.922;6.928;2022-12-18T03:57:22;-4.00;99.90
34698;DHT22;61391;50.922;6.928;2022-12-18T03:59:54;-4.10;99.90
34698;DHT22;61391;50.922;6.928;2022-12-18T04:02:21;-4.10;99.90
34698;DHT22;61391;50.922;6.928;2022-12-18T04:04:51;-4.10;99.90
34698;DHT22;61391;50.922;6.928;2022-12-18T04:07:18;-4.00;99.90
34698;DHT22;61391;50.922;6.928;2022-12-18T04:09:45;-4.00;99.90
34698;DHT22;61391;50.922;6.928;2022-12-18T04:12:11;-4.10;99.90
34698;DHT22;61391;50.922;6.928;2022-12-18T04:14:37;-4.00;99.90
34698;DHT22;61391;50.922;6.928;2022-12-18T04:17:03;-4.10;99.90
34698;DHT22;61391;50.922;6.928;2022-12-18T04:19:28;-4.20;99.90
34698;DHT22;61391;50.922;6.928;2022-12-18T04:21:54;-4.10;99.90
34698;DHT22;61391;50.922;6.928;2022-12-18T04:24:19;-4.00;99.90
34698;DHT22;61391;50.922;6.928;2022-12-18T04:26:45;-4.40;99.90
34698;DHT22;61391;50.922;6.928;2022-12-18T04:29:11;-4.30;99.90
34698;DHT22;61391;50.922;6.928;2022-12-18T04:31:36;-4.40;99.90
34698;DHT22;61391;50.922;6.928;2022-12-18T04:34:02;-4.50;99.90
34698;DHT22;61391;50.922;6.928;2022-12-18T04:36:28;-4.40;99.90
34698;DHT22;61391;50.922;6.928;2022-12-18T04:38:54;-4.40;99.90
34698;DHT22;61391;50.922;6.928;2022-12-18T04:41:19;-4.40;99.90
34698;DHT22;61391;50.922;6.928;2022-12-18T04:43:45;-4.30;99.90
34698;DHT22;61391;50.922;6.928;2022-12-18T04:46:10;-4.30;99.90
34698;DHT22;61391;50.922;6.928;2022-12-18T04:48:36;-4.20;99.90
34698;DHT22;61391;50.922;6.928;2022-12-18T04:51:03;-4.30;99.90
34698;DHT22;61391;50.922;6.928;2022-12-18T04:53:29;-4.40;99.90
34698;DHT22;61391;50.922;6.928;2022-12-18T04:56:05;-4.40;99.90
34698;DHT22;61391;50.922;6.928;2022-12-18T04:58:34;-4.60;99.90
34698;DHT22;61391;50.922;6.928;2022-12-18T05:01:01;-4.60;99.90
34698;DHT22;61391;50.922;6.928;2022-12-18T05:03:26;-4.80;99.90
34698;DHT22;61391;50.922;6.928;2022-12-18T05:05:52;-4.90;99.90
34698;DHT22;61391;50.922;6.928;2022-12-18T05:08:18;-4.90;99.90
34698;DHT22;61391;50.922;6.928;2022-12-18T05:10:44;-4.90;99.90
34698;DHT22;61391;50.922;6.928;2022-12-18T05:13:09;-4.90;99.90
34698;DHT22;61391;50.922;6.928;2022-12-18T05:15:35;-4.60;99.90
34698;DHT22;61391;50.922;6.928;2022-12-18T05:18:01;-4.90;99.90
34698;DHT22;61391;50.922;6.928;2022-12-18T05:20:28;-4.90;99.90
34698;DHT22;61391;50.922;6.928;2022-12-18T05:22:54;-4.90;99.90
34698;DHT22;61391;50.922;6.928;2022-12-18T05:25:20;-4.90;99.90
34698;DHT22;61391;50.922;6.928;2022-12-18T05:27:46;-4.80;99.90
34698;DHT22;61391;50.922;6.928;2022-12-18T05:30:13;-4.70;99.90
34698;DHT22;61391;50.922;6.928;2022-12-18T05:32:39;-4.70;99.90
34698;DHT22;61391;50.922;6.928;2022-12-18T05:35:07;-4.80;99.90
34698;DHT22;61391;50.922;6.928;2022-12-18T05:37:33;-4.80;99.90
34698;DHT22;61391;50.922;6.928;2022-12-18T05:39:59;-4.80;99.90
34698;DHT22;61391;50.922;6.928;2022-12-18T05:42:25;-4.60;99.90
34698;DHT22;61391;50.922;6.928;2022-12-18T05:44:50;-4.50;99.90
34698;DHT22;61391;50.922;6.928;2022-12-18T05:47:16;-4.60;99.90
34698;DHT22;61391;50.922;6.928;2022-12-18T05:49:41;-4.60;99.90
34698;DHT22;61391;50.922;6.928;2022-12-18T05:52:07;-4.70;99.90
34698;DHT22;61391;50.922;6.928;2022-12-18T05:54:33;-4.50;99.90
34698;DHT22;61391;50.922;6.928;2022-12-18T05:56:58;-4.50;99.90
34698;DHT22;61391;50.922;6.928;2022-12-18T05:59:24;-4.50;99.90
34698;DHT22;61391;50.922;6.928;2022-12-18T06:01:49;-4.40;99.90
34698;DHT22;61391;50.922;6.928;2022-12-18T06:04:15;-4.20;99.90
34698;DHT22;61391;50.922;6.928;2022-12-18T06:06:41;-4.10;99.90
34698;DHT22;61391;50.922;6.928;2022-12-18T06:09:06;-4.20;99.90
34698;DHT22;61391;50.922;6.928;2022-12-18T06:11:35;-4.20;99.90
34698;DHT22;61391;50.922;6.928;2022-12-18T06:14:02;-4.20;99.90
34698;DHT22;61391;50.922;6.928;2022-12-18T06:16:28;-4.20;99.90
34698;DHT22;61391;50.922;6.928;2022-12-18T06:19:03;-4.30;99.90
34698;DHT22;61391;50.922;6.928;2022-12-18T06:21:29;-4.50;99.90
34698;DHT22;61391;50.922;6.928;2022-12-18T06:23:55;-4.40;99.90
34698;DHT22;61391;50.922;6.928;2022-12-18T06:26:22;-4.60;99.90
34698;DHT22;61391;50.922;6.928;2022-12-18T06:28:47;-4.50;99.90
34698;DHT22;61391;50.922;6.928;2022-12-18T06:31:13;-4.30;99.90
34698;DHT22;61391;50.922;6.928;2022-12-18T06:33:39;-4.50;99.90
34698;DHT22;61391;50.922;6.928;2022-12-18T06:36:11;-4.60;99.90
34698;DHT22;61391;50.922;6.928;2022-12-18T06:38:38;-4.70;99.90
34698;DHT22;61391;50.922;6.928;2022-12-18T06:41:15;-4.70;99.90
34698;DHT22;61391;50.922;6.928;2022-12-18T06:43:42;-4.70;99.90
34698;DHT22;61391;50.922;6.928;2022-12-18T06:49:30;-4.80;99.90
34698;DHT22;61391;50.922;6.928;2022-12-18T06:51:55;-4.60;99.90
34698;DHT22;61391;50.922;6.928;2022-12-18T06:54:21;-4.80;99.90
34698;DHT22;61391;50.922;6.928;2022-12-18T07:00:09;-4.90;99.90
34698;DHT22;61391;50.922;6.928;2022-12-18T07:02:35;-4.80;99.90
34698;DHT22;61391;50.922;6.928;2022-12-18T07:05:01;-4.90;99.90
34698;DHT22;61391;50.922;6.928;2022-12-18T07:07:26;-4.80;99.90
34698;DHT22;61391;50.922;6.928;2022-12-18T07:09:52;-4.80;99.90
34698;DHT22;61391;50.922;6.928;2022-12-18T07:12:18;-4.80;99.90
34698;DHT22;61391;50.922;6.928;2022-12-18T07:14:44;-4.80;99.90
34698;DHT22;61391;50.922;6.928;2022-12-18T07:17:09;-4.80;99.90
34698;DHT22;61391;50.922;6.928;2022-12-18T07:19:35;-4.70;99.90
34698;DHT22;61391;50.922;6.928;2022-12-18T07:22:01;-4.70;99.90
34698;DHT22;61391;50.922;6.928;2022-12-18T07:24:27;-4.70;99.90
34698;DHT22;61391;50.922;6.928;2022-12-18T07:26:53;-4.60;99.90
34698;DHT22;61391;50.922;6.928;2022-12-18T07:29:18;-4.80;99.90
34698;DHT22;61391;50.922;6.928;2022-12-18T07:31:44;-4.60;99.90
34698;DHT22;61391;50.922;6.928;2022-12-18T07:34:13;-4.50;99.90
34698;DHT22;61391;50.922;6.928;2022-12-18T07:36:40;-4.50;99.90
34698;DHT22;61391;50.922;6.928;2022-12-18T07:39:06;-4.70;99.90
34698;DHT22;61391;50.922;6.928;2022-12-18T07:41:32;-4.60;99.90
34698;DHT22;61391;50.922;6.928;2022-12-18T07:43:58;-4.60;99.90
34698;DHT22;61391;50.922;6.928;2022-12-18T07:46:23;-4.60;99.90
34698;DHT22;61391;50.922;6.928;2022-12-18T07:48:49;-4.60;99.90
34698;DHT22;61391;50.922;6.928;2022-12-18T07:51:14;-4.40;99.90
34698;DHT22;61391;50.922;6.928;2022-12-18T07:53:40;-4.50;99.90
34698;DHT22;61391;50.922;6.928;2022-12-18T07:56:09;-4.40;99.90
34698;DHT22;61391;50.922;6.928;2022-12-18T07:58:35;-4.40;99.90
34698;DHT22;61391;50.922;6.928;2022-12-18T08:01:09;-4.30;99.90
34698;DHT22;61391;50.922;6.928;2022-12-18T08:03:35;-4.30;99.90
34698;DHT22;61391;50.922;6.928;2022-12-18T08:06:02;-4.40;99.90
34698;DHT22;61391;50.922;6.928;2022-12-18T08:08:29;-3.40;99.90
34698;DHT22;61391;50.922;6.928;2022-12-18T08:10:55;-4.30;99.90
34698;DHT22;61391;50.922;6.928;2022-12-18T08:13:21;-4.30;99.90
34698;DHT22;61391;50.922;6.928;2022-12-18T08:15:59;-4.30;99.90
34698;DHT22;61391;50.922;6.928;2022-12-18T08:18:25;-4.10;99.90
34698;DHT22;61391;50.922;6.928;2022-12-18T08:20:51;-4.10;99.90
34698;DHT22;61391;50.922;6.928;2022-12-18T08:23:16;-4.10;99.90
34698;DHT22;61391;50.922;6.928;2022-12-18T08:25:42;-4.10;99.90
34698;DHT22;61391;50.922;6.928;2022-12-18T08:28:07;-4.00;99.90
34698;DHT22;61391;50.922;6.928;2022-12-18T08:30:33;-4.00;99.90
34698;DHT22;61391;50.922;6.928;2022-12-18T08:32:58;-3.70;99.90
34698;DHT22;61391;50.922;6.928;2022-12-18T08:35:24;-3.60;99.90
34698;DHT22;61391;50.922;6.928;2022-12-18T08:37:50;-3.30;99.90
34698;DHT22;61391;50.922;6.928;2022-12-18T08:40:15;-3.20;99.90
34698;DHT22;61391;50.922;6.928;2022-12-18T08:42:41;-2.90;99.90
34698;DHT22;61391;50.922;6.928;2022-12-18T08:45:25;-2.60;99.90
34698;DHT22;61391;50.922;6.928;2022-12-18T08:47:51;-2.60;99.90
34698;DHT22;61391;50.922;6.928;2022-12-18T08:50:17;-2.60;99.90
34698;DHT22;61391;50.922;6.928;2022-12-18T08:52:42;-2.50;99.90
34698;DHT22;61391;50.922;6.928;2022-12-18T08:55:08;-2.30;99.90
34698;DHT22;61391;50.922;6.928;2022-12-18T08:57:34;-2.20;99.90
34698;DHT22;61391;50.922;6.928;2022-12-18T09:03:22;-1.80;99.90
34698;DHT22;61391;50.922;6.928;2022-12-18T09:05:47;-1.90;99.90
34698;DHT22;61391;50.922;6.928;2022-12-18T09:08:13;-1.90;99.90
34698;DHT22;61391;50.922;6.928;2022-12-18T09:10:45;-1.50;99.90
34698;DHT22;61391;50.922;6.928;2022-12-18T09:13:12;-1.20;99.90
34698;DHT22;61391;50.922;6.928;2022-12-18T09:15:52;-1.40;99.90
34698;DHT22;61391;50.922;6.928;2022-12-18T09:18:20;-1.00;99.90
34698;DHT22;61391;50.922;6.928;2022-12-18T09:20:46;-1.20;99.90
34698;DHT22;61391;50.922;6.928;2022-12-18T09:23:12;-1.40;99.90
34698;DHT22;61391;50.922;6.928;2022-12-18T09:25:38;-1.60;99.90
34698;DHT22;61391;50.922;6.928;2022-12-18T09:28:10;-1.30;99.90
34698;DHT22;61391;50.922;6.928;2022-12-18T09:30:38;-1.10;99.90
34698;DHT22;61391;50.922;6.928;2022-12-18T09:33:04;-0.60;99.90
34698;DHT22;61391;50.922;6.928;2022-12-18T09:35:29;-0.20;99.90
34698;DHT22;61391;50.922;6.928;2022-12-18T09:37:55;-0.30;99.90
34698;DHT22;61391;50.922;6.928;2022-12-18T09:40:23;-0.50;99.90
34698;DHT22;61391;50.922;6.928;2022-12-18T09:42:56;-0.60;99.90
34698;DHT22;61391;50.922;6.928;2022-12-18T09:45:23;-0.90;99.90
34698;DHT22;61391;50.922;6.928;2022-12-18T09:47:51;-0.80;99.90
34698;DHT22;61391;50.922;6.928;2022-12-18T09:50:32;-0.90;99.90
34698;DHT22;61391;50.922;6.928;2022-12-18T09:53:06;-1.20;99.90
34698;DHT22;61391;50.922;6.928;2022-12-18T09:55:38;-1.20;99.90
34698;DHT22;61391;50.922;6.928;2022-12-18T09:58:39;-1.10;99.90
34698;DHT22;61391;50.922;6.928;2022-12-18T10:01:26;-1.10;99.90
34698;DHT22;61391;50.922;6.928;2022-12-18T10:07:16;-1.30;99.90
34698;DHT22;61391;50.922;6.928;2022-12-18T10:10:04;-1.30;99.90
34698;DHT22;61391;50.922;6.928;2022-12-18T10:15:24;-1.20;99.90
34698;DHT22;61391;50.922;6.928;2022-12-18T10:17:58;-1.30;99.90
34698;DHT22;61391;50.922;6.928;2022-12-18T10:20:41;-1.10;99.90
34698;DHT22;61391;50.922;6.928;2022-12-18T10:28:23;-0.90;99.90
34698;DHT22;61391;50.922;6.928;2022-12-18T10:30:49;-0.70;99.90
34698;DHT22;61391;50.922;6.928;2022-12-18T10:33:24;-0.50;99.90
34698;DHT22;61391;50.922;6.928;2022-12-18T10:35:50;-0.50;99.90
34698;DHT22;61391;50.922;6.928;2022-12-18T10:43:33;0.40;99.90
34698;DHT22;61391;50.922;6.928;2022-12-18T10:49:26;0.60;99.90
34698;DHT22;61391;50.922;6.928;2022-12-18T10:52:23;-0.20;99.90
34698;DHT22;61391;50.922;6.928;2022-12-18T10:54:59;-0.20;99.90
34698;DHT22;61391;50.922;6.928;2022-12-18T11:01:06;-0.10;99.90
34698;DHT22;61391;50.922;6.928;2022-12-18T11:07:05;-0.50;99.90
34698;DHT22;61391;50.922;6.928;2022-12-18T11:09:33;-0.50;99.90
34698;DHT22;61391;50.922;6.928;2022-12-18T11:12:03;-0.50;99.90
34698;DHT22;61391;50.922;6.928;2022-12-18T11:14:46;-0.40;99.90
34698;DHT22;61391;50.922;6.928;2022-12-18T11:17:19;-0.30;99.90
34698;DHT22;61391;50.922;6.928;2022-12-18T11:19:52;-0.30;99.90
34698;DHT22;61391;50.922;6.928;2022-12-18T11:22:33;-0.10;99.90
34698;DHT22;61391;50.922;6.928;2022-12-18T11:25:04;-0.30;99.90
34698;DHT22;61391;50.922;6.928;2022-12-18T11:27:31;-0.30;99.90
34698;DHT22;61391;50.922;6.928;2022-12-18T11:38:37;-0.40;99.90
34698;DHT22;61391;50.922;6.928;2022-12-18T11:41:32;-0.50;99.90
34698;DHT22;61391;50.922;6.928;2022-12-18T11:48:03;-0.50;99.90
34698;DHT22;61391;50.922;6.928;2022-12-18T11:53:02;-0.70;99.90
34698;DHT22;61391;50.922;6.928;2022-12-18T11:58:26;-0.60;99.90
34698;DHT22;61391;50.922;6.928;2022-12-18T12:01:14;-0.60;99.90
34698;DHT22;61391;50.922;6.928;2022-12-18T12:09:43;-0.70;99.90
34698;DHT22;61391;50.922;6.928;2022-12-18T12:12:39;-0.70;99.90
34698;DHT22;61391;50.922;6.928;2022-12-18T12:21:27;-0.70;99.90
34698;DHT22;61391;50.922;6.928;2022-12-18T12:29:32;-0.60;99.90
34698;DHT22;61391;50.922;6.928;2022-12-18T12:40:38;-0.80;99.90
34698;DHT22;61391;50.922;6.928;2022-12-18T12:43:33;-0.80;99.90
34698;DHT22;61391;50.922;6.928;2022-12-18T12:46:07;-0.80;99.90
34698;DHT22;61391;50.922;6.928;2022-12-18T12:52:07;-0.70;99.90
34698;DHT22;61391;50.922;6.928;2022-12-18T12:54:36;-0.60;99.90
34698;DHT22;61391;50.922;6.928;2022-12-18T12:57:21;-0.80;99.90
34698;DHT22;61391;50.922;6.928;2022-12-18T13:08:03;-0.60;99.90
34698;DHT22;61391;50.922;6.928;2022-12-18T13:10:37;-0.70;99.90
34698;DHT22;61391;50.922;6.928;2022-12-18T13:13:10;-0.60;99.90
34698;DHT22;61391;50.922;6.928;2022-12-18T13:18:59;-0.40;99.90
34698;DHT22;61391;50.922;6.928;2022-12-18T13:21:28;-0.50;99.90
34698;DHT22;61391;50.922;6.928;2022-12-18T13:23:54;-0.40;99.90
34698;DHT22;61391;50.922;6.928;2022-12-18T13:28:53;-0.70;99.90
34698;DHT22;61391;50.922;6.928;2022-12-18T13:34:24;-0.70;99.90
34698;DHT22;61391;50.922;6.928;2022-12-18T13:36:52;-0.70;99.90
34698;DHT22;61391;50.922;6.928;2022-12-18T13:41:45;-0.60;99.90
34698;DHT22;61391;50.922;6.928;2022-12-18T13:46:51;-0.40;99.90
34698;DHT22;61391;50.922;6.928;2022-12-18T13:49:38;-0.50;99.90
34698;DHT22;61391;50.922;6.928;2022-12-18T13:52:34;-0.60;99.90
34698;DHT22;61391;50.922;6.928;2022-12-18T13:55:04;-0.40;99.90
34698;DHT22;61391;50.922;6.928;2022-12-18T13:57:32;-0.30;99.90
34698;DHT22;61391;50.922;6.928;2022-12-18T13:59:58;-0.50;99.90
34698;DHT22;61391;50.922;6.928;2022-12-18T14:02:49;-0.50;99.90
34698;DHT22;61391;50.922;6.928;2022-12-18T14:08:39;-0.40;99.90
34698;DHT22;61391;50.922;6.928;2022-12-18T14:14:27;-0.60;99.90
34698;DHT22;61391;50.922;6.928;2022-12-18T14:16:54;-0.50;99.90
34698;DHT22;61391;50.922;6.928;2022-12-18T14:19:19;-0.50;99.90
34698;DHT22;61391;50.922;6.928;2022-12-18T14:21:47;-0.50;99.90
34698;DHT22;61391;50.922;6.928;2022-12-18T14:24:14;-0.50;99.90
34698;DHT22;61391;50.922;6.928;2022-12-18T14:26:40;-0.60;99.90
34698;DHT22;61391;50.922;6.928;2022-12-18T14:29:27;-0.50;99.90
34698;DHT22;61391;50.922;6.928;2022-12-18T14:32:16;-0.50;99.90
34698;DHT22;61391;50.922;6.928;2022-12-18T14:37:14;-0.50;99.90
34698;DHT22;61391;50.922;6.928;2022-12-18T14:39:39;-0.60;99.90
34698;DHT22;61391;50.922;6.928;2022-12-18T14:42:05;-0.60;99.90
34698;DHT22;61391;50.922;6.928;2022-12-18T14:44:31;-0.60;99.90
34698;DHT22;61391;50.922;6.928;2022-12-18T14:46:56;-0.50;99.90
34698;DHT22;61391;50.922;6.928;2022-12-18T14:51:56;-0.50;99.90
34698;DHT22;61391;50.922;6.928;2022-12-18T14:54:23;-0.60;99.90
34698;DHT22;61391;50.922;6.928;2022-12-18T14:56:54;-0.60;99.90
34698;DHT22;61391;50.922;6.928;2022-12-18T15:02:43;-0.60;99.90
34698;DHT22;61391;50.922;6.928;2022-12-18T15:07:52;-0.80;99.90
34698;DHT22;61391;50.922;6.928;2022-12-18T15:10:22;-0.80;99.90
34698;DHT22;61391;50.922;6.928;2022-12-18T15:12:49;-0.90;99.90
34698;DHT22;61391;50.922;6.928;2022-12-18T15:18:41;-0.80;99.90
34698;DHT22;61391;50.922;6.928;2022-12-18T15:21:09;-0.80;99.90
34698;DHT22;61391;50.922;6.928;2022-12-18T15:23:45;-0.80;99.90
34698;DHT22;61391;50.922;6.928;2022-12-18T15:26:13;-0.80;99.90
34698;DHT22;61391;50.922;6.928;2022-12-18T15:28:52;-0.90;99.90
34698;DHT22;61391;50.922;6.928;2022-12-18T15:31:31;-0.80;99.90
34698;DHT22;61391;50.922;6.928;2022-12-18T15:36:24;-0.70;99.90
34698;DHT22;61391;50.922;6.928;2022-12-18T15:38:55;-0.70;99.90
34698;DHT22;61391;50.922;6.928;2022-12-18T15:41:22;-0.70;99.90
34698;DHT22;61391;50.922;6.928;2022-12-18T15:43:50;-0.70;99.90
34698;DHT22;61391;50.922;6.928;2022-12-18T15:46:20;-0.60;99.90
34698;DHT22;61391;50.922;6.928;2022-12-18T15:48:51;-0.80;99.90
34698;DHT22;61391;50.922;6.928;2022-12-18T15:51:26;-0.80;99.90
34698;DHT22;61391;50.922;6.928;2022-12-18T15:53:55;-0.90;99.90
34698;DHT22;61391;50.922;6.928;2022-12-18T15:56:21;-0.90;99.90
34698;DHT22;61391;50.922;6.928;2022-12-18T15:59:14;-0.90;99.90
34698;DHT22;61391;50.922;6.928;2022-12-18T16:05:01;-1.00;99.90
34698;DHT22;61391;50.922;6.928;2022-12-18T16:07:27;-0.90;99.90
34698;DHT22;61391;50.922;6.928;2022-12-18T16:09:53;-1.00;99.90
34698;DHT22;61391;50.922;6.928;2022-12-18T16:12:21;-0.90;99.90
34698;DHT22;61391;50.922;6.928;2022-12-18T16:14:47;-0.90;99.90
34698;DHT22;61391;50.922;6.928;2022-12-18T16:17:14;-0.80;99.90
34698;DHT22;61391;50.922;6.928;2022-12-18T16:23:01;-0.90;99.90
34698;DHT22;61391;50.922;6.928;2022-12-18T16:25:28;-0.80;99.90
34698;DHT22;61391;50.922;6.928;2022-12-18T16:31:15;-0.80;99.90
34698;DHT22;61391;50.922;6.928;2022-12-18T16:37:08;-0.90;99.90
34698;DHT22;61391;50.922;6.928;2022-12-18T16:39:35;-0.90;99.90
34698;DHT22;61391;50.922;6.928;2022-12-18T16:45:23;-1.00;99.90
34698;DHT22;61391;50.922;6.928;2022-12-18T16:47:48;-0.90;99.90
34698;DHT22;61391;50.922;6.928;2022-12-18T16:50:14;-0.90;99.90
34698;DHT22;61391;50.922;6.928;2022-12-18T16:56:01;-0.90;99.90
34698;DHT22;61391;50.922;6.928;2022-12-18T16:58:27;-0.90;99.90
34698;DHT22;61391;50.922;6.928;2022-12-18T17:00:52;-0.90;99.90
34698;DHT22;61391;50.922;6.928;2022-12-18T17:03:18;-1.00;99.90
34698;DHT22;61391;50.922;6.928;2022-12-18T17:09:09;-1.00;99.90
34698;DHT22;61391;50.922;6.928;2022-12-18T17:11:36;-1.00;99.90
34698;DHT22;61391;50.922;6.928;2022-12-18T17:14:09;-1.00;99.90
34698;DHT22;61391;50.922;6.928;2022-12-18T17:16:35;-1.00;99.90
34698;DHT22;61391;50.922;6.928;2022-12-18T17:22:22;-1.00;99.90
34698;DHT22;61391;50.922;6.928;2022-12-18T17:24:48;-0.90;99.90
34698;DHT22;61391;50.922;6.928;2022-12-18T17:27:14;-0.90;99.90
34698;DHT22;61391;50.922;6.928;2022-12-18T17:29:39;-0.90;99.90
34698;DHT22;61391;50.922;6.928;2022-12-18T17:32:05;-0.90;99.90
34698;DHT22;61391;50.922;6.928;2022-12-18T17:34:31;-0.90;99.90
34698;DHT22;61391;50.922;6.928;2022-12-18T17:36:56;-0.80;99.90
34698;DHT22;61391;50.922;6.928;2022-12-18T17:42:44;-0.90;99.90
34698;DHT22;61391;50.922;6.928;2022-12-18T17:48:32;-0.90;99.90
34698;DHT22;61391;50.922;6.928;2022-12-18T17:51:02;-1.10;99.90
34698;DHT22;61391;50.922;6.928;2022-12-18T17:53:28;-1.10;99.90
34698;DHT22;61391;50.922;6.928;2022-12-18T17:55:55;-1.10;99.90
34698;DHT22;61391;50.922;6.928;2022-12-18T18:01:42;-1.00;99.90
34698;DHT22;61391;50.922;6.928;2022-12-18T18:04:08;-1.00;99.90
34698;DHT22;61391;50.922;6.928;2022-12-18T18:09:55;-1.00;99.90
34698;DHT22;61391;50.922;6.928;2022-12-18T18:12:21;-1.20;99.90
34698;DHT22;61391;50.922;6.928;2022-12-18T18:15:05;-1.10;99.90
34698;DHT22;61391;50.922;6.928;2022-12-18T18:17:31;-1.10;99.90
34698;DHT22;61391;50.922;6.928;2022-12-18T18:19:56;-1.30;99.90
34698;DHT22;61391;50.922;6.928;2022-12-18T18:22:22;-1.20;99.90
34698;DHT22;61391;50.922;6.928;2022-12-18T18:24:47;-1.20;99.90
34698;DHT22;61391;50.922;6.928;2022-12-18T18:30:38;-1.30;99.90
34698;DHT22;61391;50.922;6.928;2022-12-18T18:33:03;-1.20;99.90
34698;DHT22;61391;50.922;6.928;2022-12-18T18:35:29;-1.00;99.90
34698;DHT22;61391;50.922;6.928;2022-12-18T18:37:54;-1.00;99.90
34698;DHT22;61391;50.922;6.928;2022-12-18T18:40:20;-1.00;99.90
34698;DHT22;61391;50.922;6.928;2022-12-18T18:42:46;-1.10;99.90
34698;DHT22;61391;50.922;6.928;2022-12-18T18:45:12;-1.10;99.90
34698;DHT22;61391;50.922;6.928;2022-12-18T18:47:38;-1.10;99.90
34698;DHT22;61391;50.922;6.928;2022-12-18T18:50:04;-1.20;99.90
34698;DHT22;61391;50.922;6.928;2022-12-18T18:52:30;-1.10;99.90
34698;DHT22;61391;50.922;6.928;2022-12-18T18:54:55;-1.10;99.90
34698;DHT22;61391;50.922;6.928;2022-12-18T18:57:21;-1.00;99.90
34698;DHT22;61391;50.922;6.928;2022-12-18T19:03:08;-1.10;99.90
34698;DHT22;61391;50.922;6.928;2022-12-18T19:15:40;-1.20;99.90
34698;DHT22;61391;50.922;6.928;2022-12-18T19:18:17;-1.20;99.90